createdAt,value
2019-01-26T00:01:07.891Z,75.27
2019-01-26T00:03:36.527Z,84.87
2019-01-26T00:06:05.319Z,80.43
2019-01-26T00:08:33.989Z,80.37
2019-01-26T00:11:02.626Z,71.70
2019-01-26T00:13:31.256Z,75.97
2019-01-26T00:15:59.924Z,68.87
2019-01-26T00:18:28.490Z,66.73
2019-01-26T00:20:57.172Z,80.20
2019-01-26T00:23:25.854Z,85.27
2019-01-26T00:25:54.489Z,95.47
2019-01-26T00:28:23.157Z,84.90
2019-01-26T00:30:51.791Z,91.60
2019-01-26T00:33:20.364Z,87.20
2019-01-26T00:35:49.005Z,95.40
2019-01-26T00:38:17.698Z,104.53
2019-01-26T00:40:46.315Z,93.43
2019-01-26T00:43:14.935Z,111.63
2019-01-26T00:45:43.619Z,122.87
2019-01-26T00:48:12.249Z,118.20
2019-01-26T00:50:40.852Z,121.07
2019-01-26T00:53:09.536Z,118.10
2019-01-26T00:55:38.172Z,118.17
2019-01-26T00:58:06.790Z,106.60
2019-01-26T01:00:35.567Z,116.03
2019-01-26T01:03:04.298Z,118.60
2019-01-26T01:05:32.884Z,117.33
2019-01-26T01:08:01.631Z,117.70
2019-01-26T01:10:30.259Z,116.47
2019-01-26T01:12:58.902Z,111.80
2019-01-26T01:15:27.542Z,106.53
2019-01-26T01:17:56.223Z,107.20
2019-01-26T01:20:24.847Z,91.83
2019-01-26T01:22:53.526Z,105.77
2019-01-26T01:25:22.148Z,91.93
2019-01-26T01:27:50.824Z,93.43
2019-01-26T01:30:24.348Z,89.83
2019-01-26T01:32:53.019Z,102.30
2019-01-26T01:35:21.646Z,118.53
2019-01-26T01:37:50.310Z,121.07
2019-01-26T01:40:19.538Z,130.10
2019-01-26T01:42:48.275Z,129.03
2019-01-26T01:45:22.409Z,113.60
2019-01-26T01:47:51.201Z,111.37
2019-01-26T01:50:19.796Z,141.37
2019-01-26T01:52:48.471Z,126.20
2019-01-26T01:55:17.101Z,131.80
2019-01-26T01:57:45.736Z,127.33
2019-01-26T02:00:17.488Z,121.90
2019-01-26T02:02:46.127Z,118.73
2019-01-26T02:05:14.799Z,126.50
2019-01-26T02:07:43.435Z,127.73
2019-01-26T02:10:20.682Z,132.07
2019-01-26T02:12:49.339Z,125.20
2019-01-26T02:15:17.975Z,131.50
2019-01-26T02:17:46.862Z,123.27
2019-01-26T02:20:23.325Z,114.07
2019-01-26T02:22:52.007Z,127.10
2019-01-26T02:25:23.502Z,119.27
2019-01-26T02:27:52.124Z,130.87
2019-01-26T02:30:22.682Z,132.20
2019-01-26T02:32:51.304Z,142.67
2019-01-26T02:35:19.945Z,140.00
2019-01-26T02:37:48.654Z,129.57
2019-01-26T02:40:21.619Z,132.40
2019-01-26T02:42:50.310Z,143.70
2019-01-26T02:45:18.944Z,151.00
2019-01-26T02:47:47.515Z,144.77
2019-01-26T02:50:17.908Z,141.23
2019-01-26T02:52:46.526Z,163.87
2019-01-26T02:55:15.254Z,155.83
2019-01-26T02:57:44.028Z,148.37
2019-01-26T03:00:21.797Z,150.00
2019-01-26T03:02:50.468Z,153.97
2019-01-26T03:05:19.139Z,169.47
2019-01-26T03:07:47.767Z,171.83
2019-01-26T03:10:22.539Z,167.13
2019-01-26T03:12:51.177Z,145.63
2019-01-26T03:15:21.657Z,152.40
2019-01-26T03:17:50.391Z,151.07
2019-01-26T03:20:19.218Z,159.37
2019-01-26T03:22:47.893Z,143.53
2019-01-26T03:25:17.321Z,128.70
2019-01-26T03:27:45.955Z,133.07
2019-01-26T03:30:22.570Z,109.80
2019-01-26T03:32:54.649Z,118.17
2019-01-26T03:35:25.992Z,129.90
2019-01-26T03:37:54.563Z,138.63
2019-01-26T03:40:23.406Z,152.77
2019-01-26T03:42:52.123Z,144.80
2019-01-26T03:45:20.767Z,146.53
2019-01-26T03:47:58.589Z,127.07
2019-01-26T03:50:27.201Z,141.03
2019-01-26T03:52:55.896Z,135.83
2019-01-26T03:55:24.531Z,144.83
2019-01-26T03:57:53.227Z,133.37
2019-01-26T04:00:24.595Z,126.93
2019-01-26T04:02:53.231Z,132.43
2019-01-26T04:05:21.906Z,122.33
2019-01-26T04:07:50.631Z,111.10
2019-01-26T04:10:19.306Z,110.50
2019-01-26T04:12:47.940Z,117.57
2019-01-26T04:15:18.884Z,111.93
2019-01-26T04:17:47.717Z,111.97
2019-01-26T04:20:21.219Z,108.33
2019-01-26T04:22:50.006Z,106.30
2019-01-26T04:25:18.689Z,112.37
2019-01-26T04:27:47.312Z,96.63
2019-01-26T04:30:18.346Z,107.30
2019-01-26T04:32:47.975Z,96.03
2019-01-26T04:35:17.144Z,106.57
2019-01-26T04:37:46.371Z,113.57
2019-01-26T04:40:17.946Z,119.00
2019-01-26T04:42:46.679Z,96.13
2019-01-26T04:45:20.920Z,112.93
2019-01-26T04:47:55.729Z,118.33
2019-01-26T04:50:25.574Z,108.27
2019-01-26T04:52:54.795Z,113.97
2019-01-26T04:55:23.470Z,112.30
2019-01-26T04:57:52.094Z,127.97
2019-01-26T05:00:25.339Z,102.47
2019-01-26T05:02:53.970Z,112.40
2019-01-26T05:05:22.641Z,121.77
2019-01-26T05:07:51.257Z,128.50
2019-01-26T05:10:21.239Z,129.03
2019-01-26T05:12:50.456Z,131.20
2019-01-26T05:15:19.937Z,122.70
2019-01-26T05:17:48.624Z,120.70
2019-01-26T05:20:22.400Z,128.20
2019-01-26T05:22:51.035Z,138.23
2019-01-26T05:25:19.826Z,126.40
2019-01-26T05:27:48.434Z,135.30
2019-01-26T05:30:22.619Z,131.73
2019-01-26T05:32:51.252Z,126.00
2019-01-26T05:35:19.880Z,152.50
2019-01-26T05:37:48.516Z,143.87
2019-01-26T05:40:18.493Z,141.73
2019-01-26T05:42:47.123Z,144.97
2019-01-26T05:45:18.227Z,149.23
2019-01-26T05:47:48.823Z,152.87
2019-01-26T05:50:26.011Z,154.23
2019-01-26T05:52:54.848Z,165.43
2019-01-26T05:55:23.520Z,171.57
2019-01-26T05:57:52.149Z,152.10
2019-01-26T06:00:25.291Z,166.40
2019-01-26T06:02:54.047Z,168.20
2019-01-26T06:05:22.679Z,180.50
2019-01-26T06:07:51.319Z,153.60
2019-01-26T06:10:20.011Z,154.93
2019-01-26T06:12:48.570Z,171.43
2019-01-26T06:15:17.303Z,191.83
2019-01-26T06:17:46.082Z,190.70
2019-01-26T06:20:16.411Z,184.23
2019-01-26T06:22:45.095Z,188.03
2019-01-26T06:25:19.111Z,181.90
2019-01-26T06:27:48.150Z,189.50
2019-01-26T06:30:22.946Z,185.67
2019-01-26T06:32:51.627Z,170.57
2019-01-26T06:35:20.361Z,179.17
2019-01-26T06:37:49.020Z,176.33
2019-01-26T06:40:21.831Z,172.37
2019-01-26T06:42:50.457Z,181.10
2019-01-26T06:45:20.537Z,176.60
2019-01-26T06:47:49.173Z,173.83
2019-01-26T06:50:25.133Z,155.03
2019-01-26T06:52:53.791Z,148.73
2019-01-26T06:55:22.563Z,153.13
2019-01-26T06:57:51.251Z,162.73
2019-01-26T07:00:26.663Z,158.37
2019-01-26T07:02:55.848Z,157.30
2019-01-26T07:05:32.322Z,151.10
2019-01-26T07:08:01.016Z,141.57
2019-01-26T07:10:29.653Z,151.87
2019-01-26T07:12:58.294Z,160.13
2019-01-26T07:15:27.052Z,143.80
2019-01-26T07:17:55.702Z,143.47
2019-01-26T07:20:24.323Z,156.33
2019-01-26T07:22:52.945Z,172.70
2019-01-26T07:25:21.627Z,179.27
2019-01-26T07:27:53.119Z,160.40
2019-01-26T07:30:23.651Z,169.10
2019-01-26T07:32:52.352Z,165.23
2019-01-26T07:35:21.225Z,160.50
2019-01-26T07:37:49.789Z,168.90
2019-01-26T07:40:23.081Z,177.70
2019-01-26T07:42:52.065Z,150.03
2019-01-26T07:45:20.901Z,160.30
2019-01-26T07:47:49.669Z,164.33
2019-01-26T07:50:26.400Z,147.10
2019-01-26T07:52:55.081Z,166.00
2019-01-26T07:55:23.711Z,178.60
2019-01-26T07:57:55.412Z,156.90
2019-01-26T08:00:28.931Z,141.60
2019-01-26T08:02:57.622Z,149.13
2019-01-26T08:05:27.034Z,162.20
2019-01-26T08:07:55.739Z,172.57
2019-01-26T08:10:26.388Z,173.33
2019-01-26T08:12:55.306Z,158.60
2019-01-26T08:15:26.889Z,169.00
2019-01-26T08:17:55.450Z,170.27
2019-01-26T08:20:24.427Z,154.50
2019-01-26T08:22:53.178Z,160.73
2019-01-26T08:25:21.810Z,150.00
2019-01-26T08:27:50.539Z,152.33
2019-01-26T08:30:21.326Z,163.13
2019-01-26T08:32:50.807Z,196.30
2019-01-26T08:35:19.788Z,175.70
2019-01-26T08:37:49.357Z,206.00
2019-01-26T08:40:19.991Z,176.67
2019-01-26T08:42:48.895Z,75.00
2019-01-26T08:45:24.420Z,30.90
2019-01-26T08:47:53.018Z,31.67
2019-01-26T08:50:24.101Z,28.33
2019-01-26T08:52:52.799Z,28.17
2019-01-26T08:55:21.615Z,30.83
2019-01-26T08:57:53.230Z,30.87
2019-01-26T09:00:24.950Z,31.63
2019-01-26T09:10:06.057Z,30.00
2019-01-26T09:13:13.573Z,31.53
2019-01-26T09:16:06.688Z,32.57
2019-01-26T09:19:11.491Z,33.00
2019-01-26T09:22:01.015Z,38.03
2019-01-26T09:32:03.611Z,30.40
2019-01-26T09:35:17.514Z,36.27
2019-01-26T09:38:07.750Z,37.37
2019-01-26T09:44:39.383Z,33.60
2019-01-26T09:51:02.605Z,36.23
2019-01-26T09:53:54.500Z,32.73
2019-01-26T09:57:01.715Z,36.27
2019-01-26T10:06:32.464Z,29.20
2019-01-26T10:23:03.047Z,32.23
2019-01-26T10:29:21.108Z,36.33
2019-01-26T10:38:32.176Z,36.83
2019-01-26T10:41:10.878Z,39.10
2019-01-26T10:44:12.697Z,36.67
2019-01-26T10:46:43.105Z,40.03
2019-01-26T10:49:20.804Z,38.80
2019-01-26T10:51:51.198Z,40.70
2019-01-26T10:54:25.980Z,42.07
2019-01-26T10:59:53.682Z,37.63
2019-01-26T14:12:15.717Z,37.80
2019-01-26T14:15:06.635Z,40.67
2019-01-26T14:21:46.556Z,37.37
2019-01-26T14:24:15.190Z,38.47
2019-01-26T14:26:49.641Z,42.70
2019-01-26T14:36:49.952Z,48.57
2019-01-26T14:39:39.974Z,40.43
2019-01-26T14:45:44.482Z,43.70
2019-01-26T14:48:36.311Z,42.03
2019-01-26T14:51:45.131Z,45.37
2019-01-26T14:54:38.520Z,47.87
2019-01-26T15:00:59.322Z,40.40
2019-01-26T15:03:47.161Z,46.07
2019-01-26T15:23:23.043Z,46.10
2019-01-26T15:30:16.006Z,56.27
2019-01-26T15:46:32.957Z,44.80
2019-01-26T15:52:50.608Z,46.63
2019-01-26T15:58:42.045Z,43.63
2019-01-26T16:34:06.358Z,51.47
2019-01-26T16:37:13.048Z,45.37
2019-01-26T17:00:37.629Z,43.20
2019-01-26T17:03:53.129Z,49.27
2019-01-26T17:06:42.470Z,49.73
2019-01-26T17:16:41.758Z,52.60
2019-01-26T17:19:49.737Z,56.50
2019-01-26T17:29:26.048Z,43.20
2019-01-26T17:42:38.938Z,54.67
2019-01-26T17:58:33.018Z,50.00
2019-01-26T18:04:49.916Z,53.67
2019-01-26T18:07:58.370Z,44.37
2019-01-26T18:17:35.167Z,55.67
2019-01-26T18:23:44.518Z,47.80
2019-01-26T19:42:18.450Z,36.50
2019-01-26T19:45:11.127Z,37.93
2019-01-26T19:51:00.514Z,33.00
2019-01-26T20:48:33.806Z,47.90
2019-01-26T20:58:01.953Z,38.83
2019-01-26T21:11:34.851Z,58.87
2019-01-26T21:14:25.780Z,53.90
2019-01-26T21:17:42.786Z,60.13
2019-01-26T21:20:50.914Z,54.30
2019-01-26T21:30:22.747Z,66.37
2019-01-26T21:36:43.399Z,58.53
2019-01-26T21:39:34.655Z,58.67
2019-01-26T21:59:47.341Z,62.77
2019-01-26T22:06:15.186Z,54.40
2019-01-26T22:12:04.803Z,54.70
2019-01-26T22:15:20.126Z,58.17
2019-01-26T22:18:37.950Z,50.73
2019-01-26T22:21:30.620Z,53.10
2019-01-26T22:24:43.518Z,52.17
2019-01-26T22:34:43.905Z,53.87
2019-01-26T22:37:20.189Z,55.20
2019-01-26T23:00:21.170Z,50.10
2019-01-26T23:13:10.275Z,53.20
2019-01-26T23:16:18.993Z,51.17
2019-01-26T23:19:42.621Z,52.47
2019-01-26T23:26:08.557Z,47.47
2019-01-26T23:42:07.090Z,37.23
2019-01-26T23:44:56.366Z,41.13
2019-01-26T23:54:34.594Z,56.27
2019-01-26T23:57:43.032Z,54.30
